Time;durP1;ratioP1;P1;durP2;ratioP2;P2;SDS_P1;SDS_P2;PMS_P1;PMS_P2;Temp;Humidity;BMP_temperature;BMP_pressure;BME280_temperature;BME280_humidity;BME280_pressure;Samples;Min_cycle;Max_cycle;Signal;HPM_P1;HPM_P2
2022/08/01 00:01:35;;;;;;;4.07;1.85;;;;;;;22.56;66.34;100123.72;4895957;29;20024;-80
2022/08/01 00:04:00;;;;;;;4.20;1.60;;;;;;;22.56;64.98;100107.44;4895206;29;20444;-81
2022/08/01 00:06:26;;;;;;;4.60;1.60;;;;;;;22.46;65.51;100100.13;4894662;29;20040;-81
2022/08/01 00:08:51;;;;;;;4.07;1.70;;;;;;;22.47;66.18;100097.28;4894554;29;20049;-81
2022/08/01 00:11:17;;;;;;;2.70;1.60;;;;;;;22.50;64.58;100102.50;4879020;29;20483;-81
2022/08/01 00:13:42;;;;;;;3.15;1.70;;;;;;;22.59;64.58;100107.19;4895504;29;20404;-81
2022/08/01 00:16:08;;;;;;;3.90;1.55;;;;;;;22.76;63.27;100112.13;4894725;29;20481;-81
2022/08/01 00:18:35;;;;;;;2.92;1.60;;;;;;;22.82;63.28;100121.59;4895601;29;20032;-81
2022/08/01 00:21:01;;;;;;;3.65;1.70;;;;;;;22.72;62.96;100090.78;4878842;29;20107;-80
2022/08/01 00:23:26;;;;;;;4.65;1.75;;;;;;;22.82;64.09;100119.75;4895833;29;20043;-82
2022/08/01 00:25:52;;;;;;;3.00;1.98;;;;;;;22.87;62.99;100112.09;4896540;29;20032;-81
2022/08/01 00:28:17;;;;;;;3.28;2.00;;;;;;;22.87;63.39;100120.25;4896514;29;20392;-81
2022/08/01 00:30:43;;;;;;;3.75;1.48;;;;;;;23.01;63.39;100128.13;4896216;29;20695;-81
2022/08/01 00:33:08;;;;;;;3.05;1.48;;;;;;;22.87;64.74;100117.53;4879892;29;20035;-81
2022/08/01 00:35:33;;;;;;;2.67;1.48;;;;;;;22.80;65.42;100127.16;4896487;29;20147;-82
2022/08/01 00:37:59;;;;;;;3.55;1.88;;;;;;;22.62;65.66;100120.50;4896436;29;20481;-81
2022/08/01 00:40:24;;;;;;;4.30;1.80;;;;;;;22.49;65.75;100106.16;4878951;29;20028;-81
2022/08/01 00:42:50;;;;;;;7.18;1.55;;;;;;;22.46;67.60;100122.69;4880037;29;20104;-81
2022/08/01 00:45:15;;;;;;;3.80;1.92;;;;;;;22.35;67.95;100111.84;4896246;29;20073;-81
2022/08/01 00:47:41;;;;;;;3.05;1.67;;;;;;;22.37;69.17;100127.97;4896663;29;20040;-81
2022/08/01 00:50:07;;;;;;;4.50;2.13;;;;;;;22.34;69.06;100133.66;4878688;29;20033;-81
2022/08/01 00:52:34;;;;;;;2.92;1.67;;;;;;;22.32;69.72;100130.19;4896185;29;20081;-81
2022/08/01 00:55:00;;;;;;;5.07;2.17;;;;;;;22.31;68.99;100134.72;4896129;29;20032;-81
2022/08/01 00:57:25;;;;;;;4.40;2.13;;;;;;;22.17;69.19;100122.25;4896114;29;20039;-81
2022/08/01 00:59:52;;;;;;;2.90;1.70;;;;;;;22.17;69.57;100126.84;4896281;29;20096;-81
2022/08/01 01:02:18;;;;;;;3.40;1.85;;;;;;;22.14;70.16;100132.50;4896044;29;20492;-81
2022/08/01 01:04:43;;;;;;;2.72;1.40;;;;;;;22.03;70.43;100124.31;4895184;29;20560;-81
2022/08/01 01:07:28;;;;;;;2.53;1.80;;;;;;;21.90;71.58;100131.69;4879035;29;20028;-81
2022/08/01 01:10:09;;;;;;;3.20;1.80;;;;;;;21.82;71.39;100126.00;4896147;29;20028;-82
2022/08/01 01:12:59;;;;;;;6.22;2.05;;;;;;;21.59;72.22;100116.03;4895488;29;20033;-80
2022/08/01 01:15:41;;;;;;;5.57;1.80;;;;;;;21.56;73.37;100140.63;4895132;29;20038;-81
2022/08/01 01:18:12;;;;;;;3.33;1.98;;;;;;;21.47;74.24;100135.88;4895426;29;20031;-81
2022/08/01 01:20:41;;;;;;;5.03;1.98;;;;;;;21.30;74.75;100111.97;4877842;29;20032;-82
2022/08/01 01:23:27;;;;;;;3.80;2.03;;;;;;;21.27;74.54;100134.69;4894451;29;20045;-82
2022/08/01 01:26:21;;;;;;;3.40;1.90;;;;;;;21.07;75.46;100115.50;4895606;29;20527;-81
2022/08/01 01:29:06;;;;;;;4.13;2.30;;;;;;;21.08;76.54;100133.44;4878860;29;20127;-80
2022/08/01 01:31:52;;;;;;;4.63;1.83;;;;;;;20.96;77.57;100135.19;4895729;29;20500;-81
2022/08/01 01:34:21;;;;;;;2.80;2.08;;;;;;;20.92;78.43;100134.53;4882382;29;20520;-81
2022/08/01 01:36:49;;;;;;;4.05;2.25;;;;;;;20.78;78.14;100113.06;4878205;29;20032;-81
2022/08/01 01:39:16;;;;;;;4.13;2.28;;;;;;;20.78;78.52;100120.31;4877692;29;20025;-80
2022/08/01 01:41:44;;;;;;;3.38;2.15;;;;;;;20.78;79.27;100126.59;4878849;29;20496;-81
2022/08/01 01:44:11;;;;;;;5.32;2.47;;;;;;;20.74;79.12;100127.75;4899081;29;20083;-80
2022/08/01 01:46:37;;;;;;;3.67;1.98;;;;;;;20.54;79.69;100095.91;4898763;29;20047;-80
2022/08/01 01:49:04;;;;;;;3.38;2.03;;;;;;;20.72;79.72;100131.56;4880052;29;20470;-81
2022/08/01 01:51:31;;;;;;;3.25;2.00;;;;;;;20.79;78.27;100120.19;4880254;29;20033;-81
2022/08/01 01:53:58;;;;;;;4.78;2.13;;;;;;;21.01;77.33;100132.16;4880947;29;20065;-81
2022/08/01 01:56:26;;;;;;;6.40;2.45;;;;;;;20.91;76.46;100102.19;4880564;29;20032;-80
2022/08/01 01:58:55;;;;;;;3.55;1.83;;;;;;;21.17;77.30;100130.94;4879084;29;20486;-81
2022/08/01 02:01:23;;;;;;;3.83;1.88;;;;;;;21.18;75.89;100118.28;4880785;29;20140;-81
2022/08/01 02:03:51;;;;;;;4.10;2.40;;;;;;;21.09;77.40;100108.16;4863539;29;20043;-81
2022/08/01 02:06:16;;;;;;;4.07;2.05;;;;;;;21.02;77.41;100123.09;4880860;29;20028;-81
2022/08/01 02:08:44;;;;;;;4.32;2.20;;;;;;;20.90;77.86;100111.31;4876707;29;20135;-80
2022/08/01 02:11:19;;;;;;;4.35;2.30;;;;;;;20.81;78.92;100120.94;4898800;29;20161;-81
2022/08/01 02:13:50;;;;;;;3.83;2.10;;;;;;;20.83;79.79;100128.94;4882447;29;20052;-81
2022/08/01 02:16:17;;;;;;;3.78;2.10;;;;;;;20.62;80.72;100117.00;4882220;29;20513;-81
2022/08/01 02:18:42;;;;;;;6.68;2.10;;;;;;;20.56;80.72;100120.97;4881925;29;20028;-81
2022/08/01 02:21:11;;;;;;;4.38;2.20;;;;;;;20.46;81.69;100109.09;4881867;29;20039;-81
2022/08/01 02:23:39;;;;;;;6.10;2.30;;;;;;;20.40;81.46;100120.34;4882306;29;20028;-82
2022/08/01 02:26:10;;;;;;;6.22;2.42;;;;;;;20.48;82.57;100133.31;4899090;29;20107;-81
2022/08/01 02:29:01;;;;;;;5.35;2.67;;;;;;;20.37;82.57;100128.69;4882585;29;20028;-81
2022/08/01 02:31:31;;;;;;;5.13;2.28;;;;;;;20.20;83.09;100106.50;4898486;29;20039;-81
2022/08/01 02:34:02;;;;;;;3.78;2.30;;;;;;;20.38;83.12;100143.03;4880727;29;20071;-80
2022/08/01 02:36:30;;;;;;;5.50;2.50;;;;;;;20.20;83.65;100118.19;4882665;29;20032;-81
2022/08/01 02:38:58;;;;;;;3.78;2.20;;;;;;;20.14;83.70;100117.72;4880407;29;20032;-81
2022/08/01 02:41:27;;;;;;;5.30;2.35;;;;;;;20.20;83.53;100134.41;4898265;29;20028;-80
2022/08/01 02:43:58;;;;;;;3.92;2.17;;;;;;;20.13;84.43;100119.56;4881018;29;20024;-81
2022/08/01 02:46:29;;;;;;;4.47;2.13;;;;;;;20.10;84.84;100121.63;4881037;29;20824;-81
2022/08/01 02:48:59;;;;;;;4.25;2.17;;;;;;;20.12;85.27;100141.28;4898074;29;20036;-81
2022/08/01 02:51:25;;;;;;;4.65;2.67;;;;;;;19.90;86.02;100125.69;4881728;29;20036;-80
2022/08/01 02:53:54;;;;;;;3.65;1.98;;;;;;;19.97;86.68;100148.59;4880518;29;20079;-81
2022/08/01 02:56:22;;;;;;;4.28;2.10;;;;;;;19.76;86.70;100117.69;4881903;29;20060;-81
2022/08/01 02:58:49;;;;;;;4.22;1.98;;;;;;;19.77;86.88;100129.34;4881010;29;20028;-81
2022/08/01 03:01:16;;;;;;;3.75;2.40;;;;;;;19.75;87.10;100126.75;4897831;29;20040;-81
2022/08/01 03:03:42;;;;;;;4.05;2.25;;;;;;;19.68;87.94;100136.25;4898337;29;20028;-81
2022/08/01 03:06:09;;;;;;;5.25;2.30;;;;;;;19.56;87.93;100137.06;4880164;29;20020;-80
2022/08/01 03:08:36;;;;;;;3.67;2.00;;;;;;;19.52;87.72;100130.16;4897115;29;20829;-80
2022/08/01 03:11:03;;;;;;;4.60;2.03;;;;;;;19.42;88.37;100129.03;4896732;29;20508;-82
2022/08/01 03:13:31;;;;;;;3.78;2.35;;;;;;;19.35;88.63;100122.31;4880154;29;20032;-81
2022/08/01 03:16:00;;;;;;;6.82;2.22;;;;;;;19.32;88.78;100134.16;4897445;29;20029;-81
2022/08/01 03:18:27;;;;;;;5.05;2.40;;;;;;;19.18;89.63;100114.44;4897712;29;20029;-81
2022/08/01 03:20:54;;;;;;;4.80;2.63;;;;;;;19.26;89.99;100145.31;4897437;29;20032;-81
2022/08/01 03:23:22;;;;;;;4.53;2.35;;;;;;;19.14;90.22;100129.09;4896829;29;20059;-80
2022/08/01 03:25:49;;;;;;;4.45;2.20;;;;;;;19.16;90.14;100137.97;4897338;29;20108;-81
2022/08/01 03:28:16;;;;;;;6.15;2.95;;;;;;;19.16;90.68;100127.19;4880226;29;20047;-81
2022/08/01 03:30:43;;;;;;;4.90;2.60;;;;;;;19.23;91.16;100139.28;4880393;29;20047;-81
2022/08/01 03:33:09;;;;;;;5.10;2.50;;;;;;;19.25;90.58;100131.94;4897852;29;20358;-82
2022/08/01 03:35:39;;;;;;;5.90;2.65;;;;;;;19.10;91.09;100116.78;4880568;29;20043;-81
2022/08/01 03:38:07;;;;;;;4.10;2.38;;;;;;;19.24;91.59;100132.94;4897525;29;20020;-81
2022/08/01 03:40:38;;;;;;;4.68;2.25;;;;;;;19.23;91.57;100141.97;4897227;29;20036;-81
2022/08/01 03:43:07;;;;;;;4.80;2.97;;;;;;;19.18;91.64;100131.50;4896734;29;20031;-80
2022/08/01 03:45:38;;;;;;;5.03;2.22;;;;;;;19.06;91.72;100124.19;4881896;29;20024;-81
2022/08/01 03:48:17;;;;;;;4.13;2.40;;;;;;;19.01;92.03;100122.78;4880547;29;20048;-81
2022/08/01 03:50:46;;;;;;;4.65;2.72;;;;;;;19.06;91.56;100124.19;4880295;29;20032;-82
2022/08/01 03:53:13;;;;;;;4.65;2.08;;;;;;;19.02;91.88;100116.41;4880415;29;20200;-81
2022/08/01 03:55:40;;;;;;;3.90;2.50;;;;;;;19.16;91.80;100133.41;4880638;29;20039;-81
2022/08/01 03:58:08;;;;;;;4.13;2.67;;;;;;;19.30;92.42;100140.63;4897181;29;20029;-81
2022/08/01 04:00:38;;;;;;;4.63;2.17;;;;;;;19.39;91.48;100145.41;4879391;29;20039;-81
2022/08/01 04:03:04;;;;;;;5.72;2.55;;;;;;;19.43;91.34;100141.56;4897197;29;20032;-81
2022/08/01 04:05:31;;;;;;;6.53;2.22;;;;;;;19.43;91.00;100136.16;4879442;29;20480;-81
2022/08/01 04:07:56;;;;;;;5.95;2.67;;;;;;;19.61;90.06;100146.59;4897018;29;20136;-81
2022/08/01 04:10:23;;;;;;;5.75;2.53;;;;;;;19.60;89.68;100122.41;4879395;29;20069;-81
2022/08/01 04:12:49;;;;;;;4.70;2.40;;;;;;;19.66;89.47;100127.38;4896071;29;20024;-81
2022/08/01 04:15:15;;;;;;;5.93;2.13;;;;;;;19.76;89.24;100152.78;4879098;29;20092;-81
2022/08/01 04:17:40;;;;;;;6.70;2.58;;;;;;;19.59;89.56;100126.06;4896243;29;20029;-81
2022/08/01 04:20:06;;;;;;;10.15;2.40;;;;;;;19.68;90.09;100141.63;4895665;29;20466;-81
2022/08/01 04:22:33;;;;;;;3.65;2.22;;;;;;;19.55;90.21;100130.78;4896176;29;20404;-81
2022/08/01 04:25:02;;;;;;;4.22;2.05;;;;;;;19.57;89.92;100134.25;4896686;29;20457;-81
2022/08/01 04:27:36;;;;;;;5.53;2.47;;;;;;;19.60;89.52;100139.44;4879297;29;20028;-82
2022/08/01 04:30:01;;;;;;;;;;;;;;;19.75;89.14;100159.16;4880220;29;20487;-81
2022/08/01 04:32:31;;;;;;;10.27;3.08;;;;;;;19.71;88.44;100154.03;4896512;29;19990;-81
2022/08/01 04:34:59;;;;;;;6.97;2.53;;;;;;;19.72;87.30;100143.16;4897135;29;20020;-82
2022/08/01 04:37:25;;;;;;;4.57;2.83;;;;;;;19.83;86.32;100139.72;4896557;29;20052;-81
2022/08/01 04:39:54;;;;;;;6.88;2.70;;;;;;;19.94;86.34;100159.63;4895792;29;20392;-82
2022/08/01 04:42:20;;;;;;;7.78;3.10;;;;;;;19.93;85.92;100151.63;4879675;29;20035;-81
2022/08/01 04:44:45;;;;;;;4.28;2.70;;;;;;;20.04;85.21;100152.63;4879676;29;20028;-81
2022/08/01 04:47:13;;;;;;;5.53;2.80;;;;;;;20.03;84.25;100131.97;4896825;29;20037;-81
2022/08/01 04:49:40;;;;;;;8.40;2.72;;;;;;;20.24;83.95;100157.53;4879341;29;20083;-81
2022/08/01 04:52:06;;;;;;;6.18;2.40;;;;;;;20.41;83.36;100159.91;4879712;29;20039;-81
2022/08/01 04:54:36;;;;;;;6.97;3.30;;;;;;;20.47;82.50;100159.50;4879502;29;20811;-81
2022/08/01 04:57:03;;;;;;;4.85;2.38;;;;;;;20.63;82.24;100164.66;4896259;29;20040;-81
2022/08/01 04:59:39;;;;;;;5.65;3.00;;;;;;;20.69;81.74;100165.06;4896325;29;20081;-80
2022/08/01 05:02:05;;;;;;;6.43;2.85;;;;;;;20.85;80.79;100163.03;4896261;29;20031;-80
2022/08/01 05:04:31;;;;;;;8.13;2.88;;;;;;;20.81;79.86;100137.16;4879443;29;20028;-81
2022/08/01 05:06:56;;;;;;;5.80;2.40;;;;;;;21.04;79.10;100154.44;4878859;29;20104;-82
2022/08/01 05:09:22;;;;;;;5.13;2.88;;;;;;;21.29;78.57;100153.50;4878876;29;20741;-81
2022/08/01 05:11:47;;;;;;;5.53;2.47;;;;;;;21.19;78.04;100136.22;4913880;29;20045;-82
2022/08/01 05:14:12;;;;;;;4.80;2.60;;;;;;;21.48;77.10;100165.53;4897327;29;20027;-81
2022/08/01 05:16:38;;;;;;;4.68;2.40;;;;;;;21.52;76.43;100158.06;4913889;29;20034;-82
2022/08/01 05:19:03;;;;;;;9.38;2.75;;;;;;;21.39;76.31;100125.66;4903343;29;20032;-81
2022/08/01 05:21:29;;;;;;;4.57;2.42;;;;;;;21.65;75.92;100161.56;4879355;29;20025;-81
2022/08/01 05:23:54;;;;;;;3.83;2.40;;;;;;;21.63;75.47;100163.56;4879830;29;20418;-82
2022/08/01 05:26:20;;;;;;;4.95;2.67;;;;;;;21.61;75.61;100170.94;4878865;29;20036;-81
2022/08/01 05:28:45;;;;;;;5.07;2.40;;;;;;;21.64;75.42;100171.56;4894915;29;20028;-82
2022/08/01 05:31:11;;;;;;;7.05;2.97;;;;;;;21.63;75.32;100174.38;4893831;29;20033;-81
2022/08/01 05:33:36;;;;;;;6.35;2.80;;;;;;;21.70;75.23;100183.75;4893317;29;20105;-81
2022/08/01 05:36:02;;;;;;;7.57;2.40;;;;;;;21.65;76.00;100169.69;4896155;29;20028;-82
2022/08/01 05:38:28;;;;;;;6.90;3.17;;;;;;;21.72;77.00;100173.69;4895691;29;20485;-82
2022/08/01 05:40:53;;;;;;;4.93;2.20;;;;;;;21.58;76.43;100157.63;4886860;29;20039;-81
2022/08/01 05:43:19;;;;;;;4.90;2.55;;;;;;;21.73;75.60;100186.25;4885842;29;20035;-82
2022/08/01 05:45:45;;;;;;;7.22;2.40;;;;;;;21.67;75.21;100154.19;4894995;29;20056;-82
2022/08/01 05:48:11;;;;;;;11.68;2.95;;;;;;;21.87;75.06;100188.78;4896323;29;20536;-81
2022/08/01 05:50:36;;;;;;;6.25;2.35;;;;;;;21.97;75.48;100173.56;4896758;29;20120;-82
2022/08/01 05:53:02;;;;;;;7.38;2.78;;;;;;;22.15;74.32;100188.41;4891614;29;20028;-81
2022/08/01 05:55:27;;;;;;;6.40;2.78;;;;;;;22.31;73.29;100183.53;4896053;29;20485;-81
2022/08/01 05:57:53;;;;;;;5.25;2.47;;;;;;;22.54;72.70;100187.16;4896626;29;20564;-81
2022/08/01 06:00:18;;;;;;;6.35;2.75;;;;;;;22.66;70.83;100159.09;4879220;29;20100;-81
2022/08/01 06:02:44;;;;;;;7.05;2.20;;;;;;;22.86;69.80;100175.50;4879191;29;20092;-81
2022/08/01 06:05:10;;;;;;;4.10;2.30;;;;;;;23.00;69.58;100186.09;4879254;29;20377;-81
2022/08/01 06:07:36;;;;;;;5.00;2.78;;;;;;;23.02;68.98;100181.41;4896364;29;20568;-81
2022/08/01 06:10:02;;;;;;;5.57;2.58;;;;;;;23.22;68.36;100185.22;4879781;29;20040;-82
2022/08/01 06:12:27;;;;;;;4.68;2.67;;;;;;;23.22;68.15;100161.66;4878848;29;20033;-81
2022/08/01 06:14:53;;;;;;;5.03;2.22;;;;;;;23.39;67.57;100169.28;4878912;29;20028;-82
2022/08/01 06:17:18;;;;;;;5.10;2.60;;;;;;;23.59;67.27;100180.34;4878957;29;20069;-82
2022/08/01 06:19:43;;;;;;;6.03;2.72;;;;;;;23.64;67.05;100172.69;4862985;29;20123;-82
2022/08/01 06:22:09;;;;;;;5.40;2.40;;;;;;;23.86;68.24;100178.03;4895679;29;20036;-82
2022/08/01 06:24:34;;;;;;;4.43;2.17;;;;;;;23.92;68.33;100182.97;4895836;29;20040;-82
2022/08/01 06:27:00;;;;;;;3.50;2.22;;;;;;;23.85;67.31;100163.59;4879404;29;20420;-82
2022/08/01 06:29:25;;;;;;;5.53;2.42;;;;;;;24.02;67.31;100164.91;4898956;29;20036;-82
2022/08/01 06:31:51;;;;;;;5.03;2.22;;;;;;;24.17;67.72;100169.88;4882461;29;20060;-82
2022/08/01 06:34:16;;;;;;;4.40;2.17;;;;;;;24.22;68.28;100164.91;4881910;29;20040;-82
2022/08/01 06:36:41;;;;;;;5.93;2.00;;;;;;;24.51;68.01;100186.88;4881372;29;20031;-82
2022/08/01 06:39:07;;;;;;;4.82;2.50;;;;;;;24.66;68.23;100185.53;4880687;29;20047;-82
2022/08/01 06:41:32;;;;;;;4.15;2.20;;;;;;;24.75;68.22;100171.13;4881946;29;20039;-82
2022/08/01 06:43:59;;;;;;;4.18;2.35;;;;;;;24.99;68.80;100171.66;4881675;29;20135;-82
2022/08/01 06:46:25;;;;;;;3.72;1.95;;;;;;;25.16;67.19;100157.41;4881917;29;20104;-82
2022/08/01 06:48:50;;;;;;;3.72;1.92;;;;;;;25.51;66.59;100182.34;4881286;29;20123;-82
2022/08/01 06:51:19;;;;;;;4.10;1.80;;;;;;;25.55;67.08;100170.13;4898496;29;20044;-82
2022/08/01 06:53:45;;;;;;;2.97;1.50;;;;;;;25.83;66.70;100184.81;4898238;29;20032;-82
2022/08/01 06:56:10;;;;;;;3.03;1.50;;;;;;;25.94;65.63;100174.66;4898270;29;20035;-82
2022/08/01 06:58:36;;;;;;;8.00;1.90;;;;;;;26.04;65.01;100187.44;4881897;29;20035;-82
2022/08/01 07:01:08;;;;;;;3.42;1.38;;;;;;;26.26;66.35;100188.00;4897457;29;20037;-82
2022/08/01 07:03:34;;;;;;;3.60;1.65;;;;;;;26.31;65.05;100169.31;4897675;29;20017;-82
2022/08/01 07:06:00;;;;;;;5.65;1.40;;;;;;;26.69;62.88;100193.84;4897044;29;20028;-82
2022/08/01 07:08:25;;;;;;;2.92;1.58;;;;;;;26.74;61.92;100174.28;4880081;29;20075;-82
2022/08/01 07:10:51;;;;;;;2.97;1.50;;;;;;;26.79;61.45;100163.78;4897156;29;20501;-81
2022/08/01 07:13:20;;;;;;;2.58;1.38;;;;;;;26.82;61.47;100183.44;4880900;29;20047;-83
2022/08/01 07:15:47;;;;;;;2.47;1.50;;;;;;;26.83;62.14;100176.13;4898114;29;20043;-82
2022/08/01 07:18:13;;;;;;;3.42;1.40;;;;;;;26.86;62.21;100170.38;4878251;29;20393;-82
2022/08/01 07:20:38;;;;;;;4.18;2.03;;;;;;;27.20;61.89;100185.16;4862185;29;20036;-82
2022/08/01 07:23:03;;;;;;;5.45;1.50;;;;;;;27.48;60.82;100188.81;4879157;29;20054;-82
2022/08/01 07:25:29;;;;;;;2.53;1.23;;;;;;;27.70;59.41;100172.81;4873674;29;20454;-82
2022/08/01 07:27:55;;;;;;;2.28;1.27;;;;;;;28.16;58.78;100186.31;4897707;29;20112;-82
2022/08/01 07:30:20;;;;;;;2.70;1.55;;;;;;;28.44;57.39;100179.69;4897953;29;20120;-82
2022/08/01 07:32:46;;;;;;;4.57;1.45;;;;;;;28.61;56.27;100182.59;4881527;29;20029;-83
2022/08/01 07:35:11;;;;;;;3.60;1.45;;;;;;;28.65;57.84;100173.03;4871450;29;20545;-82
2022/08/01 07:37:36;;;;;;;3.85;1.30;;;;;;;28.93;56.40;100163.63;4870197;29;20029;-82
2022/08/01 07:40:05;;;;;;;2.72;1.50;;;;;;;29.31;54.92;100177.72;4896810;29;20037;-82
2022/08/01 07:42:31;;;;;;;3.88;1.20;;;;;;;29.36;54.09;100182.69;4886685;29;20054;-82
2022/08/01 07:44:56;;;;;;;3.35;1.40;;;;;;;29.23;54.18;100155.75;4879623;29;20076;-82
2022/08/01 07:47:26;;;;;;;2.90;1.35;;;;;;;29.82;51.93;100173.09;4896655;29;20425;-82
2022/08/01 07:49:52;;;;;;;3.03;1.30;;;;;;;29.76;52.88;100163.66;4879885;29;20040;-83
2022/08/01 07:52:18;;;;;;;3.17;1.40;;;;;;;30.01;51.89;100170.03;4880527;29;20027;-82
2022/08/01 07:54:43;;;;;;;1.88;1.15;;;;;;;30.37;51.56;100164.09;4880141;29;20029;-82
2022/08/01 07:57:09;;;;;;;4.65;1.63;;;;;;;30.68;50.67;100172.44;4896677;29;20028;-82
2022/08/01 07:59:35;;;;;;;3.72;1.70;;;;;;;30.95;50.04;100172.09;4888763;29;20036;-82
2022/08/01 08:02:00;;;;;;;2.53;1.33;;;;;;;31.32;48.58;100168.72;4883302;29;20088;-83
2022/08/01 08:04:27;;;;;;;2.33;1.20;;;;;;;31.49;48.44;100173.09;4897011;29;20049;-82
2022/08/01 08:06:53;;;;;;;3.13;1.65;;;;;;;31.38;47.40;100163.38;4880926;29;20492;-83
2022/08/01 08:09:19;;;;;;;3.53;1.90;;;;;;;31.48;47.69;100171.41;4880489;29;20075;-83
2022/08/01 08:11:45;;;;;;;8.27;3.40;;;;;;;31.63;46.38;100169.59;4897562;29;20037;-83
2022/08/01 08:14:11;;;;;;;2.70;1.00;;;;;;;31.87;46.31;100166.72;4881045;29;20025;-83
2022/08/01 08:16:37;;;;;;;3.25;1.20;;;;;;;31.94;46.88;100162.22;4897819;29;20040;-83
2022/08/01 08:19:03;;;;;;;5.20;1.23;;;;;;;31.92;46.80;100164.28;4897379;29;20039;-83
2022/08/01 08:21:30;;;;;;;2.70;1.13;;;;;;;32.49;44.46;100165.56;4881453;29;20029;-83
2022/08/01 08:26:40;;;;;;;2.67;0.98;;;;;;;32.67;44.22;100155.06;4897706;29;20040;-83
2022/08/01 08:29:06;;;;;;;2.25;1.02;;;;;;;32.52;44.60;100162.44;4896308;29;20025;-82
2022/08/01 08:31:31;;;;;;;4.50;1.40;;;;;;;32.93;43.37;100158.25;4879439;29;20111;-83
2022/08/01 08:33:57;;;;;;;2.28;1.25;;;;;;;33.15;42.67;100143.50;4891040;29;20517;-83
2022/08/01 08:36:22;;;;;;;2.00;0.90;;;;;;;33.52;41.79;100149.97;4877991;29;20032;-84
2022/08/01 08:38:48;;;;;;;3.20;1.25;;;;;;;33.56;42.92;100138.34;4860744;29;20029;-84
2022/08/01 08:41:14;;;;;;;2.35;1.40;;;;;;;33.57;42.39;100164.03;4878917;29;20032;-83
2022/08/01 08:43:40;;;;;;;1.83;1.02;;;;;;;33.49;42.29;100133.81;4879081;29;20119;-82
2022/08/01 08:46:07;;;;;;;9.13;1.60;;;;;;;33.53;41.37;100124.94;4879495;29;20107;-83
2022/08/01 08:48:34;;;;;;;1.88;1.10;;;;;;;33.67;40.45;100135.09;4896569;29;20031;-83
2022/08/01 08:51:00;;;;;;;2.00;1.08;;;;;;;33.52;41.22;100148.06;4897166;29;20043;-84
2022/08/01 08:53:26;;;;;;;1.95;1.00;;;;;;;34.00;40.33;100132.72;4880249;29;20047;-82
2022/08/01 08:55:52;;;;;;;3.03;0.98;;;;;;;34.12;40.15;100137.50;4897846;29;20028;-83
2022/08/01 08:58:19;;;;;;;3.80;1.15;;;;;;;34.39;39.71;100133.94;4897251;29;20036;-83
2022/08/01 09:00:45;;;;;;;3.35;0.90;;;;;;;34.52;39.72;100124.94;4880479;29;21054;-83
2022/08/01 09:03:12;;;;;;;1.73;1.00;;;;;;;34.73;39.94;100140.63;4896607;29;20032;-83
2022/08/01 09:05:37;;;;;;;1.40;0.93;;;;;;;34.65;38.39;100149.91;4890488;29;20044;-84
2022/08/01 09:08:07;;;;;;;2.28;0.90;;;;;;;34.58;39.06;100121.38;4863358;29;20057;-83
2022/08/01 09:10:32;;;;;;;1.95;1.02;;;;;;;34.90;38.95;100142.88;4888994;29;20111;-83
2022/08/01 09:13:04;;;;;;;1.95;0.80;;;;;;;34.90;38.26;100145.66;4881798;29;20101;-83
2022/08/01 09:15:47;;;;;;;2.38;1.17;;;;;;;34.80;38.35;100142.34;4892072;29;20029;-84
2022/08/01 09:18:35;;;;;;;4.35;1.48;;;;;;;34.91;38.47;100150.09;4896679;29;20083;-83
2022/08/01 09:21:10;;;;;;;2.70;1.40;;;;;;;35.06;38.05;100153.63;4896305;29;20458;-83
2022/08/01 09:23:39;;;;;;;3.33;1.30;;;;;;;35.12;37.47;100140.91;4879548;29;20035;-83
2022/08/01 09:26:16;;;;;;;1.38;1.00;;;;;;;35.29;38.71;100143.09;4896237;29;20033;-83
2022/08/01 09:28:42;;;;;;;2.50;1.30;;;;;;;35.62;36.61;100143.28;4880098;29;20493;-83
2022/08/01 09:31:13;;;;;;;1.98;1.13;;;;;;;35.73;36.64;100145.47;4896409;29;20100;-83
2022/08/01 09:33:55;;;;;;;3.38;1.40;;;;;;;35.44;38.58;100160.44;4879975;29;20124;-83
2022/08/01 09:36:23;;;;;;;5.68;1.50;;;;;;;35.16;38.44;100158.78;4897927;29;20032;-84
2022/08/01 09:38:50;;;;;;;3.30;1.75;;;;;;;34.51;38.34;100159.97;4877251;29;20029;-83
2022/08/01 09:41:16;;;;;;;3.63;1.75;;;;;;;34.16;39.24;100152.63;4891746;29;20045;-84
2022/08/01 09:43:48;;;;;;;3.15;1.52;;;;;;;34.33;39.66;100148.53;4896548;29;20101;-83
2022/08/01 09:46:14;;;;;;;3.92;1.80;;;;;;;34.77;38.42;100145.53;4890108;29;20089;-85
2022/08/01 09:48:58;;;;;;;3.10;1.25;;;;;;;35.05;38.89;100159.34;4886637;29;20033;-83
2022/08/01 09:51:36;;;;;;;3.22;1.63;;;;;;;34.43;38.82;100156.53;4897277;29;20138;-84
2022/08/01 09:54:06;;;;;;;3.42;1.65;;;;;;;33.81;40.04;100144.34;4895639;29;20040;-84
2022/08/01 09:56:45;;;;;;;3.60;1.52;;;;;;;33.74;40.52;100144.28;4895154;29;20037;-83
2022/08/01 09:59:11;;;;;;;3.22;1.60;;;;;;;34.01;39.97;100150.97;4899486;29;20462;-83
2022/08/01 10:01:48;;;;;;;4.13;1.45;;;;;;;34.51;38.96;100148.94;4876380;29;20036;-84
2022/08/01 10:04:16;;;;;;;3.35;1.75;;;;;;;34.42;39.20;100127.19;4882191;29;20035;-84
2022/08/01 10:06:49;;;;;;;5.10;1.77;;;;;;;33.90;39.88;100148.72;4880675;29;20029;-84
2022/08/01 10:09:14;;;;;;;3.10;1.52;;;;;;;33.42;40.73;100116.31;4899605;29;20060;-84
2022/08/01 10:11:42;;;;;;;2.80;1.58;;;;;;;32.92;42.16;100148.28;4917325;29;20373;-83
2022/08/01 10:14:08;;;;;;;4.00;2.40;;;;;;;32.78;41.70;100135.31;4918447;29;20079;-84
2022/08/01 10:16:35;;;;;;;3.60;1.70;;;;;;;32.54;42.77;100135.56;4917873;29;20468;-83
2022/08/01 10:19:05;;;;;;;4.82;1.70;;;;;;;32.48;42.44;100141.81;4901509;29;20047;-83
2022/08/01 10:21:32;;;;;;;3.75;1.60;;;;;;;32.42;43.36;100145.34;4919023;29;20147;-83
2022/08/01 10:23:58;;;;;;;3.33;1.60;;;;;;;32.99;41.42;100124.44;4921396;29;20047;-83
2022/08/01 10:26:26;;;;;;;3.33;1.73;;;;;;;33.77;40.32;100127.34;4923518;29;20032;-84
2022/08/01 10:28:53;;;;;;;3.78;1.88;;;;;;;34.36;38.15;100103.09;4911017;29;20033;-84
2022/08/01 10:31:19;;;;;;;2.50;1.52;;;;;;;34.55;38.32;100135.56;4900215;29;20452;-82
2022/08/01 10:33:45;;;;;;;4.50;1.92;;;;;;;34.18;39.22;100103.59;4883701;29;20036;-84
2022/08/01 10:36:11;;;;;;;3.88;1.73;;;;;;;34.37;38.79;100118.59;4900233;29;20031;-83
2022/08/01 10:38:37;;;;;;;5.38;1.80;;;;;;;34.73;38.13;100124.84;4900926;29;20358;-84
2022/08/01 10:41:04;;;;;;;3.25;1.83;;;;;;;34.62;38.53;100128.19;4907992;29;20031;-84
2022/08/01 10:43:30;;;;;;;3.17;1.65;;;;;;;34.29;38.84;100118.75;4900378;29;20477;-84
2022/08/01 10:45:56;;;;;;;3.05;1.70;;;;;;;34.44;37.95;100105.72;4893785;29;20031;-84
2022/08/01 10:49:13;;;;;;;7.05;1.98;;;;;;;35.26;38.44;100115.84;4892291;29;20063;-84
2022/08/01 10:51:40;;;;;;;3.88;1.60;;;;;;;35.85;36.46;100118.88;4896676;29;20047;-84
2022/08/01 10:54:07;;;;;;;3.97;1.85;;;;;;;36.02;35.63;100122.97;4883068;29;20029;-84
2022/08/01 10:56:50;;;;;;;3.17;1.65;;;;;;;36.07;36.27;100114.88;4895883;29;20111;-83
2022/08/01 10:59:24;;;;;;;4.53;1.70;;;;;;;36.03;35.71;100119.13;4885651;29;20174;-84
2022/08/01 11:02:04;;;;;;;3.35;1.65;;;;;;;35.52;36.35;100112.38;4874201;29;20033;-84
2022/08/01 11:05:09;;;;;;;5.07;1.90;;;;;;;34.91;37.41;100107.81;4881395;29;20053;-84
2022/08/01 11:07:43;;;;;;;4.13;1.73;;;;;;;34.57;37.77;100108.59;4863873;29;20053;-83
2022/08/01 11:10:21;;;;;;;3.40;1.88;;;;;;;34.25;38.32;100098.94;4880117;29;20024;-83
2022/08/01 11:12:47;;;;;;;2.22;1.48;;;;;;;33.97;38.73;100094.47;4899606;29;20096;-84
2022/08/01 11:15:13;;;;;;;4.78;1.67;;;;;;;33.73;39.68;100103.09;4885215;29;20477;-84
2022/08/01 11:17:47;;;;;;;3.38;1.83;;;;;;;33.38;39.90;100070.84;4899176;29;20116;-83
2022/08/01 11:20:15;;;;;;;4.43;1.63;;;;;;;33.17;40.23;100101.97;4898637;29;20028;-82
2022/08/01 11:22:59;;;;;;;3.47;1.77;;;;;;;32.99;41.25;100098.75;4898100;29;20476;-83
2022/08/01 11:25:37;;;;;;;2.92;1.60;;;;;;;32.60;41.67;100099.00;4898151;29;20488;-84
2022/08/01 11:28:23;;;;;;;3.35;1.70;;;;;;;32.41;42.71;100085.78;4863620;29;20048;-83
2022/08/01 11:31:06;;;;;;;2.92;1.33;;;;;;;32.03;42.75;100095.03;4879581;29;20025;-84
2022/08/01 11:33:41;;;;;;;3.10;1.70;;;;;;;31.88;43.04;100094.13;4879798;29;20029;-83